Time;durP1;ratioP1;P1;durP2;ratioP2;P2;SDS_P1;SDS_P2;PMS_P1;PMS_P2;Temp;Humidity;BMP_temperature;BMP_pressure;BME280_temperature;BME280_humidity;BME280_pressure;Samples;Min_cycle;Max_cycle;Signal;HPM_P1;HPM_P2
2024/01/21 00:02:21;;;;;;;15.23;7.90;;;-2.30;69.30;;;-0.18;51.86;98724.75;5070164;28;20044;-38
2024/01/21 00:04:49;;;;;;;17.08;8.50;;;-2.30;69.20;;;-0.18;51.75;98724.75;5070239;28;20041;-38
2024/01/21 00:07:16;;;;;;;14.63;7.67;;;-2.30;69.20;;;-0.17;51.77;98723.84;5070421;28;20051;-38
2024/01/21 00:09:44;;;;;;;14.17;7.40;;;-2.20;68.70;;;-0.15;52.56;98727.25;5071487;28;20556;-37
2024/01/21 00:12:11;;;;;;;13.03;7.47;;;-2.10;68.40;;;-0.14;52.05;98724.53;5073646;28;20073;-37
2024/01/21 00:14:39;;;;;;;13.77;7.23;;;-2.10;67.90;;;-0.10;51.71;98722.63;5072646;28;20416;-38
2024/01/21 00:17:07;;;;;;;14.17;6.90;;;-2.10;67.70;;;-0.09;51.71;98722.56;5074010;28;20036;-37
2024/01/21 00:19:35;;;;;;;13.63;6.80;;;-2.00;67.10;;;-0.08;51.53;98718.16;5073824;28;20404;-37
2024/01/21 00:22:03;;;;;;;12.23;7.03;;;-2.00;67.40;;;-0.09;51.79;98712.09;5072995;28;20044;-37
2024/01/21 00:24:31;;;;;;;13.57;7.73;;;-2.00;67.40;;;-0.07;52.27;98710.25;5073550;28;20053;-38
2024/01/21 00:26:58;;;;;;;14.40;7.20;;;-2.00;67.00;;;-0.07;51.50;98707.63;5073855;28;20071;-37
2024/01/21 00:29:26;;;;;;;13.83;7.60;;;-2.00;66.20;;;-0.07;51.68;98706.81;5072324;28;20053;-37
2024/01/21 00:31:54;;;;;;;14.80;8.37;;;-2.00;66.00;;;-0.07;51.84;98704.19;5073467;28;20037;-37
2024/01/21 00:34:21;;;;;;;28.37;15.47;;;-2.00;65.50;;;-0.07;51.37;98697.16;5073301;28;20087;-37
2024/01/21 00:36:49;;;;;;;73.37;27.67;;;-2.00;66.00;;;-0.08;51.20;98697.22;5073515;28;20353;-37
2024/01/21 00:39:16;;;;;;;56.10;23.30;;;-2.00;66.00;;;-0.09;51.18;98699.00;5073513;28;20040;-37
2024/01/21 00:41:44;;;;;;;43.33;21.60;;;-2.00;66.00;;;-0.10;51.61;98701.69;5072252;28;20503;-37
2024/01/21 00:44:28;;;;;;;98.38;37.47;;;-2.10;65.90;;;-0.10;51.49;98701.69;5073241;28;20424;-37
2024/01/21 00:46:55;;;;;;;53.07;22.63;;;-2.10;66.10;;;-0.10;50.82;98699.06;5073198;28;20041;-37
2024/01/21 00:49:23;;;;;;;20.77;11.30;;;-2.10;66.40;;;-0.08;50.89;98702.47;5073520;28;20052;-37
2024/01/21 00:51:52;;;;;;;25.97;15.20;;;-2.00;66.20;;;-0.07;51.64;98698.94;5072996;28;20036;-37
2024/01/21 00:54:19;;;;;;;23.03;13.60;;;-2.00;66.20;;;-0.06;50.84;98688.41;5073284;28;20431;-37
2024/01/21 00:56:47;;;;;;;81.03;32.20;;;-1.90;66.10;;;-0.06;51.57;98691.03;5073311;28;20389;-37
2024/01/21 00:59:15;;;;;;;50.27;22.90;;;-1.90;64.80;;;-0.06;50.71;98684.91;5073009;28;20056;-37
2024/01/21 01:01:42;;;;;;;31.97;15.83;;;-1.80;64.60;;;-0.05;51.45;98687.47;5072672;28;20044;-37
2024/01/21 01:04:10;;;;;;;62.43;28.00;;;-1.80;63.90;;;-0.04;51.29;98677.84;5073001;28;20040;-37
2024/01/21 01:06:38;;;;;;;53.97;22.50;;;-1.80;64.60;;;-0.01;51.37;98682.94;5073027;28;20415;-37
2024/01/21 01:09:06;;;;;;;45.43;21.20;;;-1.80;64.60;;;0.01;51.52;98685.50;5073387;28;20048;-38
2024/01/21 01:11:34;;;;;;;60.27;26.70;;;-1.80;64.50;;;0.03;50.74;98684.50;5073221;28;20052;-37
2024/01/21 01:14:02;;;;;;;40.53;21.03;;;-1.80;64.10;;;0.04;50.82;98674.88;5072437;28;20041;-37
2024/01/21 01:16:30;;;;;;;26.60;14.73;;;-1.70;64.30;;;0.03;51.14;98673.19;5071349;28;20040;-37
2024/01/21 01:18:58;;;;;;;19.47;11.43;;;-1.70;64.20;;;0.02;50.29;98679.34;5072898;28;20511;-37
2024/01/21 01:21:26;;;;;;;14.73;9.00;;;-1.70;64.20;;;0.01;50.41;98677.66;5070851;28;20401;-37
2024/01/21 01:23:53;;;;;;;12.23;7.67;;;-1.70;64.30;;;0.03;50.31;98673.19;5072174;28;20044;-37
2024/01/21 01:26:21;;;;;;;18.40;6.87;;;-1.60;64.30;;;-0.04;50.34;98672.59;5072643;28;20059;-37
2024/01/21 01:28:50;;;;;;;12.10;6.73;;;-1.60;64.10;;;-0.03;50.29;98669.94;5072386;28;20055;-36
2024/01/21 01:31:18;;;;;;;14.97;7.53;;;-1.70;64.50;;;-0.06;50.40;98663.97;5072553;28;20032;-36
2024/01/21 01:33:46;;;;;;;11.27;6.53;;;-1.70;63.60;;;-0.11;50.40;98668.59;5072137;28;20048;-36
2024/01/21 01:36:14;;;;;;;14.47;6.77;;;-1.80;63.90;;;-0.12;50.29;98672.13;5072264;28;20036;-36
2024/01/21 01:38:47;;;;;;;13.50;6.47;;;-1.90;64.80;;;-0.14;50.30;98672.19;5072362;28;20067;-36
2024/01/21 01:41:15;;;;;;;10.80;7.10;;;-1.80;64.40;;;-0.16;50.50;98652.22;5071677;28;20048;-37
2024/01/21 01:43:43;;;;;;;13.10;6.40;;;-1.90;65.10;;;-0.18;51.22;98654.91;5071758;28;20055;-37
2024/01/21 01:46:11;;;;;;;12.23;7.27;;;-1.90;65.00;;;-0.18;51.07;98649.69;5071979;28;20063;-37
2024/01/21 01:48:39;;;;;;;12.60;6.63;;;-2.00;65.40;;;-0.17;51.16;98643.53;5071968;28;20416;-37
2024/01/21 01:51:07;;;;;;;14.37;6.77;;;-2.00;65.50;;;-0.18;50.48;98638.38;5071875;28;20147;-37
2024/01/21 01:53:36;;;;;;;13.10;7.80;;;-2.00;65.40;;;-0.18;51.13;98639.22;5071589;28;20048;-37
2024/01/21 01:56:04;;;;;;;13.50;6.67;;;-1.90;65.20;;;-0.22;50.74;98635.03;5071937;28;20037;-37
2024/01/21 01:58:35;;;;;;;15.17;6.87;;;-2.00;65.30;;;-0.25;50.39;98635.19;5070369;28;20052;-37
2024/01/21 02:01:02;;;;;;;14.70;7.23;;;-2.00;65.20;;;-0.27;50.51;98637.88;5071899;28;20045;-37
2024/01/21 02:03:31;;;;;;;13.63;6.50;;;-2.00;65.80;;;-0.27;51.23;98634.38;5071523;28;20044;-37
2024/01/21 02:05:58;;;;;;;15.03;7.67;;;-2.10;66.20;;;-0.32;51.08;98633.75;5063685;28;20451;-36
2024/01/21 02:08:26;;;;;;;13.67;7.47;;;-2.10;65.70;;;-0.35;50.87;98626.91;5071700;28;20051;-36
2024/01/21 02:10:54;;;;;;;14.03;7.37;;;-2.20;66.10;;;-0.36;50.68;98622.56;5070326;28;20040;-37
2024/01/21 02:13:21;;;;;;;15.13;8.13;;;-2.20;65.70;;;-0.36;51.07;98619.97;5071391;28;20044;-41
2024/01/21 02:15:49;;;;;;;14.93;7.23;;;-2.20;66.30;;;-0.36;50.41;98616.50;5070982;28;20051;-37
2024/01/21 02:18:17;;;;;;;15.53;7.70;;;-2.20;66.20;;;-0.37;50.85;98614.78;5071378;28;20045;-36
2024/01/21 02:20:45;;;;;;;11.27;6.60;;;-2.20;65.90;;;-0.37;51.29;98617.41;5071195;28;20074;-36
2024/01/21 02:23:12;;;;;;;12.47;6.33;;;-2.20;65.70;;;-0.35;50.49;98612.94;5069869;28;20048;-37
2024/01/21 02:25:40;;;;;;;12.70;7.53;;;-2.20;66.40;;;-0.33;50.69;98611.13;5069583;28;20427;-37
2024/01/21 02:28:08;;;;;;;11.50;6.57;;;-2.20;66.40;;;-0.31;50.72;98607.53;5071237;28;20428;-37
2024/01/21 02:30:40;;;;;;;12.50;6.83;;;-2.20;66.10;;;-0.29;50.91;98610.06;5071130;28;20399;-37
2024/01/21 02:33:11;;;;;;;14.03;7.47;;;-2.10;66.10;;;-0.28;50.79;98607.38;5070936;28;20045;-37
2024/01/21 02:35:39;;;;;;;10.40;6.07;;;-2.10;66.00;;;-0.27;50.87;98610.84;5070940;28;20052;-37
2024/01/21 02:38:06;;;;;;;12.43;6.00;;;-2.10;65.40;;;-0.28;51.27;98604.75;5069356;28;20064;-37
2024/01/21 02:40:38;;;;;;;12.23;6.70;;;-2.10;65.30;;;-0.30;50.57;98600.53;5068678;28;20405;-36
2024/01/21 02:43:07;;;;;;;8.87;5.57;;;-2.10;65.10;;;-0.31;50.94;98606.66;5061988;28;20416;-36
2024/01/21 02:45:35;;;;;;;10.60;6.07;;;-2.10;65.10;;;-0.31;50.86;98607.53;5071083;28;20044;-36
2024/01/21 02:48:03;;;;;;;14.30;6.97;;;-2.10;64.40;;;-0.30;50.24;98605.75;5063134;28;20036;-37
2024/01/21 02:50:31;;;;;;;9.60;5.37;;;-2.00;64.40;;;-0.31;50.61;98606.66;5070965;28;20048;-37
2024/01/21 02:52:59;;;;;;;12.37;6.10;;;-2.00;64.20;;;-0.31;50.02;98602.28;5068756;28;20036;-37
2024/01/21 02:55:26;;;;;;;12.77;5.77;;;-2.10;64.20;;;-0.30;51.01;98608.38;5070989;28;20041;-37
2024/01/21 02:57:54;;;;;;;15.10;6.37;;;-2.10;64.50;;;-0.30;50.45;98609.22;5070865;28;20492;-37
2024/01/21 03:00:21;;;;;;;10.90;6.40;;;-2.10;64.30;;;-0.30;50.24;98611.84;5071128;28;20052;-37
2024/01/21 03:02:52;;;;;;;14.57;6.47;;;-2.10;64.40;;;-0.28;50.67;98620.47;5069366;28;20040;-37
2024/01/21 03:05:19;;;;;;;12.37;6.43;;;-2.10;64.60;;;-0.27;50.37;98616.06;5070724;28;20419;-37
2024/01/21 03:07:47;;;;;;;10.17;5.93;;;-2.10;64.50;;;-0.27;50.08;98621.28;5070935;28;20048;-37
2024/01/21 03:10:15;;;;;;;12.70;6.70;;;-2.10;64.60;;;-0.28;50.63;98607.38;5069229;28;20053;-37
2024/01/21 03:12:42;;;;;;;10.57;6.23;;;-2.20;64.50;;;-0.28;50.24;98606.53;5070051;28;20045;-36
2024/01/21 03:15:10;;;;;;;11.17;6.30;;;-2.20;64.60;;;-0.28;50.28;98611.75;5070534;28;20043;-37
2024/01/21 03:17:38;;;;;;;9.47;5.97;;;-2.30;65.10;;;-0.29;50.50;98607.44;5070781;28;20397;-37
2024/01/21 03:20:06;;;;;;;10.40;6.00;;;-2.30;64.80;;;-0.29;50.31;98610.94;5070832;28;20033;-37
2024/01/21 03:22:34;;;;;;;12.63;5.83;;;-2.40;65.30;;;-0.30;49.82;98603.13;5070544;28;20044;-37
2024/01/21 03:25:01;;;;;;;11.33;5.87;;;-2.40;65.60;;;-0.30;50.66;98605.75;5070501;28;20504;-37
2024/01/21 03:27:29;;;;;;;12.60;6.10;;;-2.40;65.30;;;-0.31;49.91;98604.03;5070568;28;20353;-37
2024/01/21 03:29:57;;;;;;;10.50;5.20;;;-2.40;65.60;;;-0.32;50.42;98599.75;5070738;28;20055;-36
2024/01/21 03:32:25;;;;;;;11.20;5.33;;;-2.50;65.00;;;-0.33;50.32;98598.03;5070327;28;20492;-36
2024/01/21 03:34:53;;;;;;;11.33;5.57;;;-2.50;65.40;;;-0.35;50.06;98595.50;5070547;28;20044;-36
2024/01/21 03:37:20;;;;;;;11.83;5.67;;;-2.50;66.20;;;-0.34;50.09;98594.56;5071236;28;20393;-36
2024/01/21 03:39:48;;;;;;;10.10;5.43;;;-2.40;65.30;;;-0.34;49.60;98586.72;5070525;28;20051;-37
2024/01/21 03:42:16;;;;;;;11.23;5.37;;;-2.40;65.10;;;-0.32;49.79;98586.66;5070316;28;20060;-36
2024/01/21 03:44:43;;;;;;;9.93;5.40;;;-2.30;65.00;;;-0.30;49.80;98585.66;5071380;28;20079;-37
2024/01/21 03:47:11;;;;;;;8.77;5.37;;;-2.20;64.80;;;-0.29;50.52;98576.03;5074598;28;20492;-37
2024/01/21 03:49:39;;;;;;;8.13;5.20;;;-2.20;64.20;;;-0.30;49.77;98575.19;5074599;28;20044;-37
2024/01/21 03:52:06;;;;;;;11.83;5.30;;;-2.20;64.20;;;-0.30;50.15;98575.19;5065830;28;20037;-37
2024/01/21 03:54:34;;;;;;;9.80;5.73;;;-2.20;64.10;;;-0.29;49.62;98576.03;5074135;28;20063;-37
2024/01/21 03:57:02;;;;;;;11.93;5.27;;;-2.30;63.80;;;-0.28;49.68;98572.50;5074266;28;20504;-37
2024/01/21 03:59:29;;;;;;;8.90;4.90;;;-2.20;64.30;;;-0.28;50.15;98567.28;5074345;28;20044;-37
2024/01/21 04:01:57;;;;;;;10.70;5.47;;;-2.30;64.90;;;-0.27;50.26;98567.22;5073831;28;20048;-37
2024/01/21 04:04:25;;;;;;;7.50;4.50;;;-2.20;64.60;;;-0.25;50.38;98564.53;5074127;28;20056;-37
2024/01/21 04:06:52;;;;;;;8.33;4.43;;;-2.10;64.40;;;-0.23;49.83;98567.94;5073902;28;20051;-37
2024/01/21 04:09:23;;;;;;;10.97;4.57;;;-2.10;64.00;;;-0.23;49.93;98565.31;5074202;28;20496;-37
2024/01/21 04:11:51;;;;;;;10.70;5.33;;;-2.10;64.00;;;-0.24;49.55;98555.75;5073509;28;20075;-37
2024/01/21 04:14:18;;;;;;;8.97;5.00;;;-2.00;63.30;;;-0.24;49.77;98558.34;5073926;28;20088;-37
2024/01/21 04:16:46;;;;;;;9.03;5.00;;;-2.10;64.00;;;-0.21;50.55;98555.63;5072616;28;20040;-37
2024/01/21 04:19:17;;;;;;;9.10;4.43;;;-2.10;64.20;;;-0.21;50.35;98560.84;5073789;28;20044;-36
2024/01/21 04:21:45;;;;;;;9.23;5.00;;;-2.10;64.10;;;-0.22;49.53;98554.75;5072427;28;20507;-36
2024/01/21 04:24:13;;;;;;;9.07;4.90;;;-2.10;64.40;;;-0.20;49.58;98554.69;5073384;28;20051;-36
2024/01/21 04:26:40;;;;;;;6.93;4.17;;;-2.00;64.70;;;-0.21;49.81;98553.84;5073610;28;20392;-36
2024/01/21 04:29:08;;;;;;;7.47;4.30;;;-2.10;64.40;;;-0.21;50.08;98538.13;5073683;28;20045;-36
2024/01/21 04:31:35;;;;;;;8.30;5.23;;;-2.20;64.60;;;-0.19;50.17;98540.69;5073656;28;20423;-36
2024/01/21 04:34:03;;;;;;;8.30;4.60;;;-2.20;64.80;;;-0.19;49.89;98530.22;5071452;28;20071;-36
2024/01/21 04:36:30;;;;;;;8.20;4.47;;;-2.20;64.60;;;-0.21;50.39;98527.66;5073451;28;20045;-36
2024/01/21 04:38:58;;;;;;;7.60;4.50;;;-2.10;64.50;;;-0.18;49.89;98525.81;5072152;28;20044;-37
2024/01/21 04:41:26;;;;;;;6.80;4.07;;;-2.10;64.60;;;-0.21;49.99;98525.03;5072347;28;20045;-36
2024/01/21 04:43:53;;;;;;;7.80;5.00;;;-2.00;64.30;;;-0.18;49.78;98531.06;5072704;28;20056;-36
2024/01/21 04:46:21;;;;;;;7.33;4.07;;;-2.10;64.70;;;-0.14;50.22;98530.81;5072663;28;20048;-36
2024/01/21 04:48:48;;;;;;;8.57;4.30;;;-2.00;65.00;;;-0.12;50.20;98530.75;5073329;28;20045;-36
2024/01/21 04:51:17;;;;;;;6.97;4.03;;;-2.10;64.70;;;-0.12;49.55;98542.06;5073479;28;20412;-36
2024/01/21 04:53:44;;;;;;;7.17;3.80;;;-2.10;65.40;;;-0.11;49.61;98535.94;5072971;28;20044;-36
2024/01/21 04:56:17;;;;;;;9.27;4.67;;;-2.10;65.30;;;-0.10;49.43;98542.84;5071800;28;20036;-38
2024/01/21 04:58:45;;;;;;;8.23;4.37;;;-2.10;65.70;;;-0.10;49.90;98550.69;5073229;28;20048;-38
2024/01/21 05:01:13;;;;;;;8.80;4.40;;;-2.20;65.00;;;-0.12;49.70;98549.91;5065113;28;20416;-36
2024/01/21 05:03:41;;;;;;;7.13;5.17;;;-2.20;65.60;;;-0.13;49.82;98550.03;5072913;28;20040;-36
2024/01/21 05:06:09;;;;;;;7.33;4.87;;;-2.20;66.30;;;-0.17;49.80;98557.16;5072658;28;20542;-36
2024/01/21 05:08:37;;;;;;;9.60;5.03;;;-2.30;67.20;;;-0.19;50.38;98561.63;5073120;28;20423;-37
2024/01/21 05:11:04;;;;;;;11.27;5.37;;;-2.30;67.40;;;-0.21;49.74;98559.06;5072891;28;20060;-37
2024/01/21 05:13:32;;;;;;;8.77;4.60;;;-2.40;67.90;;;-0.26;49.83;98568.91;5072593;28;20048;-37
2024/01/21 05:16:10;;;;;;;6.33;3.73;;;-2.40;68.50;;;-0.31;50.49;98576.13;5072552;28;20512;-36
2024/01/21 05:18:40;;;;;;;7.03;4.57;;;-2.50;68.90;;;-0.32;50.53;98576.19;5072949;28;20056;-37
2024/01/21 05:21:08;;;;;;;10.13;4.50;;;-2.50;69.00;;;-0.33;50.69;98590.19;5072697;28;20037;-37
2024/01/21 05:23:36;;;;;;;8.33;3.77;;;-2.60;68.50;;;-0.34;50.73;98593.72;5072434;28;20047;-37
2024/01/21 05:26:04;;;;;;;7.10;4.23;;;-2.60;68.60;;;-0.35;50.59;98595.50;5072212;28;20291;-37
2024/01/21 05:28:32;;;;;;;7.70;4.10;;;-2.60;69.30;;;-0.36;50.48;98601.66;5072293;28;20266;-37
2024/01/21 05:30:59;;;;;;;8.90;3.97;;;-2.60;69.50;;;-0.37;50.62;98604.31;5071211;28;20053;-37
2024/01/21 05:33:27;;;;;;;6.30;3.70;;;-2.60;69.70;;;-0.39;50.48;98604.38;5072240;28;20048;-37
2024/01/21 05:35:55;;;;;;;7.00;3.73;;;-2.60;69.70;;;-0.41;50.34;98609.72;5071948;28;20049;-37
2024/01/21 05:38:22;;;;;;;6.70;4.07;;;-2.60;70.20;;;-0.42;50.63;98613.22;5072794;28;20055;-37
2024/01/21 05:40:50;;;;;;;7.40;4.03;;;-2.60;70.10;;;-0.41;50.63;98606.22;5069594;28;20045;-37
2024/01/21 05:43:17;;;;;;;6.47;3.47;;;-2.60;70.10;;;-0.41;50.42;98608.84;5071048;28;20055;-37
2024/01/21 05:45:45;;;;;;;6.00;3.77;;;-2.60;70.00;;;-0.43;50.99;98621.16;5072354;28;20499;-37
2024/01/21 05:48:13;;;;;;;8.23;4.60;;;-2.60;69.80;;;-0.43;51.05;98615.91;5072171;28;20040;-36
2024/01/21 05:50:40;;;;;;;8.50;4.33;;;-2.60;70.00;;;-0.44;50.85;98616.84;5072286;28;20059;-37
2024/01/21 05:53:08;;;;;;;7.67;3.80;;;-2.60;70.20;;;-0.46;50.80;98611.69;5071382;28;20068;-37
2024/01/21 05:55:36;;;;;;;7.20;3.43;;;-2.70;70.20;;;-0.46;50.92;98608.22;5072007;28;20055;-36
2024/01/21 05:58:03;;;;;;;7.63;3.60;;;-2.70;70.90;;;-0.48;50.58;98616.13;5072065;28;20072;-37
2024/01/21 06:00:31;;;;;;;6.60;4.37;;;-2.70;70.20;;;-0.50;51.35;98617.97;5071782;28;20045;-36
2024/01/21 06:02:59;;;;;;;4.80;3.50;;;-2.70;70.60;;;-0.50;51.52;98620.59;5071455;28;20051;-36
2024/01/21 06:05:26;;;;;;;7.77;4.47;;;-2.70;70.10;;;-0.49;51.33;98617.03;5071482;28;20163;-37
2024/01/21 06:07:54;;;;;;;6.70;3.57;;;-2.60;70.20;;;-0.48;51.11;98610.06;5071472;28;20491;-37
2024/01/21 06:10:21;;;;;;;8.83;4.10;;;-2.60;69.50;;;-0.47;50.78;98606.50;5071888;28;20049;-36
2024/01/21 06:12:49;;;;;;;7.43;4.00;;;-2.60;69.90;;;-0.46;50.57;98616.06;5070982;28;20280;-36
2024/01/21 06:15:17;;;;;;;5.73;3.37;;;-2.60;69.50;;;-0.47;51.21;98611.75;5071471;28;20059;-36
2024/01/21 06:17:45;;;;;;;4.30;3.10;;;-2.60;69.20;;;-0.48;50.93;98615.28;5071654;28;20044;-36
2024/01/21 06:20:13;;;;;;;5.20;3.43;;;-2.60;69.60;;;-0.50;50.66;98614.50;5071467;28;20052;-37
2024/01/21 06:22:41;;;;;;;8.60;3.80;;;-2.70;70.20;;;-0.51;51.32;98618.03;5071364;28;20051;-37
2024/01/21 06:25:11;;;;;;;6.07;3.83;;;-2.70;70.40;;;-0.55;51.33;98612.09;5071188;28;20045;-37
2024/01/21 06:27:39;;;;;;;6.27;3.23;;;-2.70;70.30;;;-0.57;51.39;98611.31;5071493;28;20048;-36
2024/01/21 06:30:14;;;;;;;6.20;3.47;;;-2.70;70.20;;;-0.57;50.89;98607.84;5071317;28;20056;-36
2024/01/21 06:32:42;;;;;;;5.90;3.20;;;-2.70;70.30;;;-0.58;50.74;98606.13;5086684;28;20049;-36
2024/01/21 06:35:23;;;;;;;8.93;3.53;;;-2.70;70.20;;;-0.59;51.53;98597.44;5063286;28;20496;-36
2024/01/21 06:37:51;;;;;;;7.47;3.73;;;-2.70;69.90;;;-0.58;50.89;98587.81;5071426;28;20032;-36
2024/01/21 06:40:19;;;;;;;8.03;3.77;;;-2.70;70.00;;;-0.58;51.57;98590.44;5071252;28;20048;-36
2024/01/21 06:42:46;;;;;;;8.67;3.40;;;-2.70;69.80;;;-0.56;50.84;98591.22;5070844;28;20041;-36
2024/01/21 06:45:14;;;;;;;6.77;3.53;;;-2.60;69.50;;;-0.55;51.32;98587.69;5070659;28;20053;-36
2024/01/21 06:47:42;;;;;;;7.17;4.00;;;-2.50;69.40;;;-0.52;50.97;98592.81;5070530;28;20388;-36
2024/01/21 06:50:10;;;;;;;6.63;3.90;;;-2.50;69.10;;;-0.52;51.64;98600.66;5070825;28;20036;-36
2024/01/21 06:52:38;;;;;;;6.90;3.67;;;-2.40;68.70;;;-0.51;50.95;98607.56;5070788;28;20041;-37
2024/01/21 06:55:07;;;;;;;5.53;3.47;;;-2.40;68.80;;;-0.53;50.98;98605.00;5071134;28;20051;-37
2024/01/21 06:57:34;;;;;;;8.10;4.13;;;-2.50;68.90;;;-0.51;51.49;98602.34;5071025;28;20048;-37
2024/01/21 07:00:05;;;;;;;4.80;3.10;;;-2.40;68.60;;;-0.50;51.41;98604.06;5070917;28;20517;-36
2024/01/21 07:02:32;;;;;;;8.57;3.80;;;-2.50;68.80;;;-0.52;51.45;98601.50;5070852;28;20051;-36
2024/01/21 07:05:00;;;;;;;8.87;4.67;;;-2.50;68.60;;;-0.54;50.87;98600.72;5069534;28;20044;-36
2024/01/21 07:07:28;;;;;;;6.53;4.03;;;-2.50;68.20;;;-0.57;51.03;98593.00;5070997;28;20036;-36
2024/01/21 07:09:55;;;;;;;9.27;4.20;;;-2.50;68.60;;;-0.56;51.62;98601.69;5070939;28;20048;-36
2024/01/21 07:12:23;;;;;;;18.43;7.67;;;-2.50;68.70;;;-0.56;50.83;98599.06;5070288;28;20045;-36
2024/01/21 07:14:51;;;;;;;47.20;23.07;;;-2.60;68.80;;;-0.56;50.83;98606.91;5070577;28;20040;-37
2024/01/21 07:17:18;;;;;;;15.67;8.17;;;-2.60;68.70;;;-0.55;50.68;98611.25;5070626;28;20064;-36
2024/01/21 07:19:46;;;;;;;11.47;7.83;;;-2.60;69.10;;;-0.55;51.31;98617.31;5069830;28;20052;-37
2024/01/21 07:22:14;;;;;;;15.03;8.30;;;-2.60;69.30;;;-0.58;51.31;98617.47;5070455;28;20033;-37
2024/01/21 07:24:41;;;;;;;14.60;9.27;;;-2.70;69.50;;;-0.58;51.24;98619.22;5070459;28;20056;-37
2024/01/21 07:27:09;;;;;;;9.00;7.33;;;-2.70;70.00;;;-0.61;50.98;98613.19;5070642;28;20051;-37
2024/01/21 07:29:36;;;;;;;10.50;7.60;;;-2.70;70.30;;;-0.56;51.62;98620.88;5070892;28;20044;-37
2024/01/21 07:32:04;;;;;;;10.13;7.90;;;-2.70;70.60;;;-0.54;51.54;98618.16;5070275;28;20075;-37
2024/01/21 07:34:32;;;;;;;9.33;5.10;;;-2.70;69.70;;;-0.52;51.69;98614.56;5070244;28;20041;-37
2024/01/21 07:37:00;;;;;;;10.20;6.20;;;-2.60;69.90;;;-0.48;51.73;98618.75;5070760;28;20484;-37
2024/01/21 07:39:27;;;;;;;10.20;5.53;;;-2.50;70.10;;;-0.41;52.00;98622.78;5070801;28;20508;-37
2024/01/21 07:41:55;;;;;;;11.67;4.97;;;-2.40;69.50;;;-0.32;51.14;98621.53;5070521;28;20131;-37
2024/01/21 07:44:23;;;;;;;9.60;5.67;;;-2.30;69.00;;;-0.27;52.00;98609.09;5069959;28;20074;-37
2024/01/21 07:46:50;;;;;;;10.27;5.80;;;-2.20;68.80;;;-0.21;51.66;98607.97;5057794;28;20067;-37
2024/01/21 07:49:18;;;;;;;8.13;5.50;;;-2.10;69.20;;;-0.15;51.46;98601.59;5069129;28;20419;-37
2024/01/21 07:51:46;;;;;;;11.10;5.97;;;-2.00;68.90;;;-0.09;51.38;98609.16;5067714;28;20059;-37
2024/01/21 07:54:13;;;;;;;8.10;5.10;;;-1.90;69.10;;;-0.05;52.21;98608.94;5068040;28;20424;-37
2024/01/21 07:56:41;;;;;;;8.97;5.93;;;-1.80;69.00;;;0.01;51.75;98606.97;5069312;28;20044;-37
2024/01/21 07:59:09;;;;;;;11.30;6.70;;;-1.80;69.20;;;0.08;51.65;98608.34;5067990;28;20047;-37
2024/01/21 08:01:36;;;;;;;8.67;5.03;;;-1.70;69.40;;;0.15;51.35;98610.59;5069280;28;20041;-37
2024/01/21 08:04:07;;;;;;;6.67;4.90;;;-1.60;68.80;;;0.22;52.00;98613.81;5069010;28;20048;-37
2024/01/21 08:06:35;;;;;;;10.27;4.70;;;-1.50;69.10;;;0.29;51.76;98622.19;5069243;28;20048;-37
2024/01/21 08:09:03;;;;;;;8.10;4.90;;;-1.50;68.90;;;0.36;51.72;98621.84;5069339;28;20048;-37
2024/01/21 08:11:31;;;;;;;9.07;5.20;;;-1.40;69.00;;;0.42;51.81;98622.47;5068930;28;20047;-37
2024/01/21 08:13:59;;;;;;;8.93;5.60;;;-1.30;68.40;;;0.47;51.72;98617.88;5069120;28;20048;-36
2024/01/21 08:16:26;;;;;;;9.27;6.13;;;-1.30;69.00;;;0.53;51.53;98630.69;5069336;28;20419;-37
2024/01/21 08:18:54;;;;;;;8.77;5.50;;;-1.30;68.60;;;0.55;51.97;98632.28;5068248;28;20084;-38
2024/01/21 08:21:21;;;;;;;10.13;6.30;;;-1.20;68.60;;;0.59;52.01;98622.50;5069275;28;20381;-37
2024/01/21 08:23:49;;;;;;;9.17;5.33;;;-1.30;68.40;;;0.62;51.13;98635.47;5068931;28;20056;-37
2024/01/21 08:26:17;;;;;;;9.83;6.43;;;-1.30;68.70;;;0.68;51.88;98634.31;5063788;28;20518;-37
2024/01/21 08:28:44;;;;;;;8.57;5.27;;;-1.20;68.60;;;0.71;51.99;98647.28;5069428;28;20504;-37
2024/01/21 08:31:12;;;;;;;10.27;6.17;;;-1.30;68.90;;;0.72;51.70;98641.13;5071184;28;20415;-37
2024/01/21 08:33:40;;;;;;;9.30;6.20;;;-1.20;69.50;;;0.75;51.75;98636.53;5072489;28;20051;-37
2024/01/21 08:36:08;;;;;;;10.07;5.90;;;-1.20;69.70;;;0.79;51.18;98642.50;5072829;28;20048;-37
2024/01/21 08:38:36;;;;;;;7.80;5.33;;;-1.10;70.50;;;0.85;51.29;98636.09;5064217;28;20431;-38
2024/01/21 08:41:04;;;;;;;10.20;5.33;;;-1.10;70.10;;;0.91;51.61;98634.03;5072766;28;20048;-37
2024/01/21 08:43:32;;;;;;;9.30;5.90;;;-1.00;70.00;;;0.98;51.97;98618.84;5072269;28;20412;-37
2024/01/21 08:46:00;;;;;;;9.53;5.83;;;-0.90;70.20;;;1.02;52.13;98622.16;5071289;28;20420;-37
2024/01/21 08:48:28;;;;;;;9.47;6.10;;;-0.90;70.10;;;1.03;51.96;98634.31;5072466;28;20048;-37
2024/01/21 08:50:56;;;;;;;8.53;5.80;;;-0.80;69.90;;;1.06;52.03;98636.81;5071917;28;20045;-37
2024/01/21 08:53:24;;;;;;;9.90;6.60;;;-0.80;70.20;;;1.10;51.62;98638.34;5072014;28;20036;-37
2024/01/21 08:55:51;;;;;;;11.80;7.07;;;-0.70;70.60;;;1.15;52.34;98628.47;5072287;28;20052;-37
2024/01/21 08:58:20;;;;;;;9.87;6.07;;;-0.70;70.00;;;1.17;51.96;98635.34;5071072;28;20384;-37
2024/01/21 09:00:47;;;;;;;9.27;6.27;;;-0.60;70.50;;;1.21;51.78;98627.31;5072104;28;20040;-37
2024/01/21 09:03:15;;;;;;;13.27;8.10;;;-0.60;70.10;;;1.24;51.85;98643.75;5071773;28;20037;-37
2024/01/21 09:05:43;;;;;;;10.43;6.57;;;-0.60;70.10;;;1.28;52.44;98641.78;5069633;28;20415;-37
2024/01/21 09:08:10;;;;;;;11.90;7.50;;;-0.60;70.00;;;1.33;52.24;98629.31;5073014;28;20048;-37
2024/01/21 09:10:38;;;;;;;12.17;7.23;;;-0.50;69.90;;;1.37;51.82;98634.31;5065154;28;20048;-37
2024/01/21 09:13:08;;;;;;;10.13;6.83;;;-0.40;70.10;;;1.42;52.24;98635.88;5073004;28;20155;-37
2024/01/21 09:15:35;;;;;;;11.23;6.17;;;-0.40;69.90;;;1.48;51.59;98640.78;5072443;28;20033;-37
2024/01/21 09:18:03;;;;;;;12.13;6.77;;;-0.30;70.00;;;1.52;52.21;98640.53;5088512;28;20040;-37
2024/01/21 09:20:31;;;;;;;10.70;6.40;;;-0.30;69.90;;;1.54;52.37;98649.19;5072961;28;20040;-38
2024/01/21 09:22:59;;;;;;;9.17;6.77;;;-0.30;69.60;;;1.57;51.76;98645.53;5072239;28;20037;-37
2024/01/21 09:25:26;;;;;;;10.17;6.60;;;-0.20;70.00;;;1.60;52.04;98634.03;5071381;28;20046;-37
2024/01/21 09:27:54;;;;;;;11.33;7.27;;;-0.20;70.10;;;1.64;52.35;98630.31;5071945;28;20051;-37
2024/01/21 09:30:21;;;;;;;11.83;7.43;;;-0.10;70.60;;;1.70;52.35;98641.34;5071039;28;20052;-37
2024/01/21 09:32:50;;;;;;;10.87;7.83;;;-0.10;70.20;;;1.76;52.09;98648.91;5072315;28;20063;-37
2024/01/21 09:35:18;;;;;;;10.30;6.83;;;-0.10;70.30;;;1.81;52.42;98648.66;5072310;28;20049;-37
2024/01/21 09:37:46;;;;;;;10.70;7.13;;;0.00;70.30;;;1.89;52.00;98669.25;5072345;28;20036;-37
2024/01/21 09:40:14;;;;;;;14.27;8.77;;;0.00;70.20;;;1.94;52.20;98669.88;5072506;28;20699;-37
2024/01/21 09:42:42;;;;;;;13.67;7.43;;;0.10;69.70;;;1.92;51.74;98669.94;5070187;28;20459;-37
2024/01/21 09:45:10;;;;;;;13.03;8.53;;;0.10;70.20;;;1.95;52.25;98689.94;5072215;28;20041;-37
2024/01/21 09:47:38;;;;;;;16.73;8.90;;;0.10;70.90;;;1.96;52.17;98683.75;5071780;28;20044;-37
2024/01/21 09:50:08;;;;;;;14.33;8.70;;;0.00;71.10;;;2.00;52.13;98687.91;5072250;28;20048;-37
2024/01/21 09:52:35;;;;;;;11.83;8.20;;;0.10;71.40;;;2.07;52.23;98683.19;5071645;28;20048;-37
2024/01/21 09:55:03;;;;;;;25.77;14.00;;;0.20;71.50;;;2.13;52.06;98683.72;5071816;28;20044;-37
2024/01/21 09:57:31;;;;;;;19.37;11.97;;;0.30;71.50;;;2.21;52.37;98678.03;5070959;28;20052;-37
2024/01/21 09:59:58;;;;;;;19.27;10.30;;;0.40;71.10;;;2.27;52.49;98682.09;5071583;28;20033;-37
2024/01/21 10:02:28;;;;;;;17.73;10.43;;;0.50;70.50;;;2.36;52.58;98684.22;5071334;28;20470;-37
2024/01/21 10:04:56;;;;;;;17.53;10.80;;;0.60;70.30;;;2.42;52.09;98680.41;5070805;28;20044;-37
2024/01/21 10:07:25;;;;;;;16.90;9.50;;;0.60;70.60;;;2.50;52.26;98679.06;5071718;28;20045;-37
2024/01/21 10:09:57;;;;;;;13.73;8.10;;;0.70;70.50;;;2.56;52.51;98670.00;5071124;28;20416;-38
2024/01/21 10:12:25;;;;;;;12.03;8.33;;;0.80;70.70;;;2.61;52.34;98670.56;5071507;28;20048;-38
2024/01/21 10:14:52;;;;;;;15.33;7.43;;;0.90;70.50;;;2.69;52.43;98667.50;5071386;28;20497;-42
2024/01/21 10:17:24;;;;;;;12.83;7.73;;;0.90;70.90;;;2.76;52.48;98653.91;5071507;28;20408;-41
2024/01/21 10:19:57;;;;;;;13.90;8.40;;;1.00;71.20;;;2.80;52.82;98644.06;5071853;28;20040;-41
2024/01/21 10:22:25;;;;;;;13.87;8.50;;;1.10;71.40;;;2.82;52.23;98657.13;5068192;28;20040;-41